Time;durP1;ratioP1;P1;durP2;ratioP2;P2;SDS_P1;SDS_P2;PMS_P1;PMS_P2;Temp;Humidity;BMP_temperature;BMP_pressure;BME280_temperature;BME280_humidity;BME280_pressure;Samples;Min_cycle;Max_cycle;Signal;HPM_P1;HPM_P2
2022/10/29 00:01:14;;;;;;;5.97;4.53;;;16.00;99.90;;;;;;5202063;28;20179;-47
2022/10/29 00:03:47;;;;;;;10.73;4.00;;;16.00;99.90;;;;;;5226781;28;20226;-49
2022/10/29 00:06:18;;;;;;;5.20;3.00;;;16.10;99.90;;;;;;5213672;28;20214;-48
2022/10/29 00:08:48;;;;;;;16.43;3.67;;;16.00;99.90;;;;;;5218559;28;20948;-50
2022/10/29 00:11:21;;;;;;;18.97;4.93;;;16.00;99.90;;;;;;5217048;28;20171;-50
2022/10/29 00:13:54;;;;;;;8.33;3.63;;;16.10;99.90;;;;;;5213269;28;20215;-48
2022/10/29 00:16:34;;;;;;;6.93;3.23;;;16.10;99.90;;;;;;5219059;28;20583;-50
2022/10/29 00:19:05;;;;;;;10.00;3.57;;;16.20;99.90;;;;;;5227670;28;20508;-50
2022/10/29 00:21:36;;;;;;;7.63;4.20;;;16.20;99.90;;;;;;5228302;28;20448;-50
2022/10/29 00:24:09;;;;;;;17.40;4.83;;;16.30;99.90;;;;;;5219869;28;20834;-50
2022/10/29 00:26:39;;;;;;;9.20;4.30;;;16.30;99.90;;;;;;5203048;28;20495;-49
2022/10/29 00:29:10;;;;;;;6.83;4.10;;;16.40;99.90;;;;;;5220210;28;20441;-49
2022/10/29 00:31:41;;;;;;;16.33;4.93;;;16.40;99.90;;;;;;5231826;28;20185;-53
2022/10/29 00:34:12;;;;;;;19.17;5.20;;;16.40;99.90;;;;;;5221037;28;20560;-49
2022/10/29 00:36:43;;;;;;;15.87;4.97;;;16.40;99.90;;;;;;5223228;28;20205;-49
2022/10/29 00:39:15;;;;;;;16.73;5.43;;;16.40;99.90;;;;;;5222316;28;20508;-49
2022/10/29 00:41:45;;;;;;;7.90;4.27;;;16.30;99.90;;;;;;5217589;28;20191;-50
2022/10/29 00:44:21;;;;;;;8.13;4.33;;;16.30;99.90;;;;;;5223182;28;20478;-49
2022/10/29 00:46:57;;;;;;;9.27;4.60;;;16.40;99.90;;;;;;5239546;28;20181;-51
2022/10/29 00:49:30;;;;;;;8.47;4.00;;;16.40;99.90;;;;;;5232266;28;20432;-51
2022/10/29 00:52:03;;;;;;;10.20;4.60;;;16.40;99.90;;;;;;5228918;28;20440;-51
2022/10/29 00:54:38;;;;;;;13.80;5.10;;;16.40;99.90;;;;;;5225196;28;20468;-49
2022/10/29 00:57:14;;;;;;;6.60;4.30;;;16.40;99.90;;;;;;5219579;28;20440;-49
2022/10/29 00:59:46;;;;;;;23.77;4.37;;;16.40;99.90;;;;;;5237218;28;20439;-49
2022/10/29 01:02:17;;;;;;;19.07;4.30;;;16.40;99.90;;;;;;5218103;28;20956;-49
2022/10/29 01:04:49;;;;;;;15.77;3.93;;;16.40;99.90;;;;;;5234714;28;20537;-51
2022/10/29 01:07:21;;;;;;;9.90;4.30;;;16.40;99.90;;;;;;5232554;28;20423;-50
2022/10/29 01:09:52;;;;;;;14.57;5.40;;;16.40;99.90;;;;;;5238287;28;20432;-51
2022/10/29 01:13:01;;;;;;;5.93;4.30;;;16.30;99.90;;;;;;5232844;28;20447;-48
2022/10/29 01:15:39;;;;;;;6.87;4.40;;;16.30;99.90;;;;;;5226904;28;20207;-49
2022/10/29 01:18:21;;;;;;;10.83;4.43;;;16.20;99.90;;;;;;5218408;28;20485;-51
2022/10/29 01:21:13;;;;;;;7.37;4.30;;;16.20;99.90;;;;;;5210212;28;20797;-49
2022/10/29 01:24:24;;;;;;;22.03;5.10;;;16.10;99.90;;;;;;5235568;28;20477;-49
2022/10/29 01:27:01;;;;;;;15.20;4.10;;;16.20;99.90;;;;;;5222155;28;20429;-51
2022/10/29 01:29:52;;;;;;;6.50;4.60;;;16.10;99.90;;;;;;5218353;28;20438;-50
2022/10/29 01:32:58;;;;;;;16.63;4.93;;;16.10;99.90;;;;;;5219003;28;20428;-50
2022/10/29 01:35:38;;;;;;;11.57;5.00;;;16.10;99.90;;;;;;5199949;28;20469;-50
2022/10/29 01:38:30;;;;;;;11.83;4.77;;;16.00;99.90;;;;;;5226269;28;20437;-50
2022/10/29 01:41:22;;;;;;;11.27;5.47;;;16.00;99.90;;;;;;5238800;28;20446;-50
2022/10/29 01:43:55;;;;;;;13.27;4.90;;;15.90;99.90;;;;;;5214941;28;20839;-53
2022/10/29 01:46:44;;;;;;;25.37;5.60;;;15.80;99.90;;;;;;5229177;28;20794;-51
2022/10/29 01:49:21;;;;;;;27.73;5.20;;;15.80;99.90;;;;;;5218292;28;20442;-50
2022/10/29 01:51:54;;;;;;;8.67;4.67;;;15.70;99.90;;;;;;5229192;28;20432;-50
2022/10/29 01:54:25;;;;;;;13.03;5.50;;;15.80;99.90;;;;;;5221968;28;20463;-49
2022/10/29 01:56:58;;;;;;;13.77;5.50;;;15.70;99.90;;;;;;5225587;28;20438;-50
2022/10/29 01:59:31;;;;;;;15.03;4.57;;;15.70;99.90;;;;;;5221408;28;20194;-50
2022/10/29 02:02:17;;;;;;;13.73;5.40;;;15.70;99.90;;;;;;5217517;28;20430;-48
2022/10/29 02:05:08;;;;;;;13.20;4.80;;;15.60;99.90;;;;;;5230691;28;20800;-50
2022/10/29 02:07:45;;;;;;;12.67;5.40;;;15.60;99.90;;;;;;5216168;28;20446;-50
2022/10/29 02:10:33;;;;;;;7.93;5.00;;;15.60;99.90;;;;;;5226567;28;20448;-49
2022/10/29 02:13:05;;;;;;;14.40;5.83;;;15.60;99.90;;;;;;5225565;28;20437;-49
2022/10/29 02:15:47;;;;;;;20.30;6.03;;;15.60;99.90;;;;;;5226061;28;20449;-49
2022/10/29 02:18:18;;;;;;;8.50;5.37;;;15.60;99.90;;;;;;5217155;28;20469;-49
2022/10/29 02:20:48;;;;;;;13.07;5.80;;;15.50;99.90;;;;;;5237142;28;20438;-49
2022/10/29 02:23:19;;;;;;;8.10;4.63;;;15.50;99.90;;;;;;5225783;28;20856;-49
2022/10/29 02:25:50;;;;;;;5.13;4.70;;;15.50;99.90;;;;;;5229786;28;20248;-49
2022/10/29 02:28:20;;;;;;;16.60;5.70;;;15.50;99.90;;;;;;5214792;28;20522;-48
2022/10/29 02:30:51;;;;;;;13.57;5.43;;;15.50;99.90;;;;;;5241966;28;20189;-49
2022/10/29 02:33:22;;;;;;;15.60;4.83;;;15.50;99.90;;;;;;5224104;28;20180;-49
2022/10/29 02:35:53;;;;;;;10.93;4.73;;;15.40;99.90;;;;;;5230659;28;20195;-50
2022/10/29 02:38:23;;;;;;;26.33;6.03;;;15.40;99.90;;;;;;5228286;28;20523;-50
2022/10/29 02:40:54;;;;;;;13.27;5.60;;;15.40;99.90;;;;;;5227442;28;20265;-49
2022/10/29 02:43:25;;;;;;;8.20;4.97;;;15.40;99.90;;;;;;5218035;28;20219;-50
2022/10/29 02:46:19;;;;;;;19.63;7.03;;;15.40;99.90;;;;;;5231278;28;20376;-49
2022/10/29 02:48:50;;;;;;;9.40;6.53;;;15.40;99.90;;;;;;5229744;28;20685;-50
2022/10/29 02:51:20;;;;;;;15.03;6.20;;;15.30;99.90;;;;;;5222043;28;20433;-50
2022/10/29 02:53:51;;;;;;;16.30;5.93;;;15.30;99.90;;;;;;5224882;28;20209;-48
2022/10/29 02:56:22;;;;;;;21.77;6.30;;;15.30;99.90;;;;;;5243389;28;20658;-49
2022/10/29 02:58:52;;;;;;;7.37;5.40;;;15.20;99.90;;;;;;5223995;28;20194;-48
2022/10/29 03:01:23;;;;;;;9.50;5.80;;;15.20;99.90;;;;;;5238887;28;20257;-50
2022/10/29 03:03:54;;;;;;;15.47;7.47;;;15.10;99.90;;;;;;5230870;28;20268;-49
2022/10/29 03:06:24;;;;;;;12.77;5.90;;;15.10;99.90;;;;;;5223548;28;20264;-50
2022/10/29 03:08:55;;;;;;;9.00;6.30;;;15.10;99.90;;;;;;5236908;28;20257;-50
2022/10/29 03:11:25;;;;;;;12.40;6.00;;;15.10;99.90;;;;;;5218534;28;20252;-48
2022/10/29 03:13:56;;;;;;;11.63;6.30;;;15.00;99.90;;;;;;5237207;28;20306;-49
2022/10/29 03:16:27;;;;;;;11.43;6.47;;;15.00;99.90;;;;;;5230909;28;20191;-50
2022/10/29 03:18:58;;;;;;;13.30;6.63;;;15.00;99.90;;;;;;5231512;28;20182;-48
2022/10/29 03:21:28;;;;;;;12.33;5.50;;;14.90;99.90;;;;;;5220014;28;20224;-50
2022/10/29 03:23:59;;;;;;;10.20;6.13;;;15.00;99.90;;;;;;5240032;28;20288;-50
2022/10/29 03:26:30;;;;;;;8.27;5.10;;;14.90;99.90;;;;;;5237276;28;20712;-49
2022/10/29 03:29:00;;;;;;;13.77;6.37;;;14.90;99.90;;;;;;5239673;28;20212;-49
2022/10/29 03:31:31;;;;;;;9.00;5.80;;;14.90;99.90;;;;;;5228068;28;20191;-50
2022/10/29 03:34:02;;;;;;;20.60;7.47;;;14.90;99.90;;;;;;5222644;28;20225;-49
2022/10/29 03:36:32;;;;;;;17.23;7.53;;;14.80;99.90;;;;;;5224950;28;20184;-48
2022/10/29 03:39:03;;;;;;;12.13;6.53;;;14.80;99.90;;;;;;5227732;28;20194;-49
2022/10/29 03:41:34;;;;;;;11.10;6.67;;;14.80;99.90;;;;;;5233032;28;20182;-49
2022/10/29 03:44:04;;;;;;;19.13;6.30;;;14.80;99.90;;;;;;5229042;28;20219;-49
2022/10/29 03:46:35;;;;;;;8.77;7.10;;;14.90;99.90;;;;;;5230157;28;20198;-47
2022/10/29 03:49:06;;;;;;;8.90;7.07;;;14.80;99.90;;;;;;5226317;28;20187;-48
2022/10/29 03:51:36;;;;;;;6.03;4.87;;;14.80;99.90;;;;;;5227509;28;20198;-50
2022/10/29 03:54:07;;;;;;;15.60;7.13;;;14.80;99.90;;;;;;5235425;28;20207;-48
2022/10/29 03:56:38;;;;;;;15.90;7.00;;;14.80;99.90;;;;;;5233997;28;20187;-49
2022/10/29 03:59:08;;;;;;;13.50;7.30;;;14.90;99.90;;;;;;5197277;28;20717;-49
2022/10/29 04:01:39;;;;;;;12.63;6.50;;;14.80;99.90;;;;;;5215865;28;20237;-49
2022/10/29 04:04:10;;;;;;;8.03;6.43;;;14.80;99.90;;;;;;5221769;28;20227;-48
2022/10/29 04:06:41;;;;;;;12.40;6.10;;;14.80;99.90;;;;;;5229017;28;20195;-48
2022/10/29 04:09:11;;;;;;;7.60;5.13;;;14.80;99.90;;;;;;5227259;28;20277;-48
2022/10/29 04:11:42;;;;;;;11.27;5.80;;;14.80;99.90;;;;;;5225453;28;20198;-47
2022/10/29 04:14:12;;;;;;;9.73;6.43;;;14.70;99.90;;;;;;5230099;28;20750;-51
2022/10/29 04:16:43;;;;;;;11.40;6.43;;;14.70;99.90;;;;;;5229292;28;20240;-47
2022/10/29 04:19:14;;;;;;;12.87;6.67;;;14.70;99.90;;;;;;5236845;28;20182;-48
2022/10/29 04:21:44;;;;;;;18.50;7.03;;;14.70;99.90;;;;;;5229458;28;20183;-47
2022/10/29 04:24:15;;;;;;;11.80;6.20;;;14.70;99.90;;;;;;5226458;28;20234;-47
2022/10/29 04:26:46;;;;;;;12.67;6.57;;;14.70;99.90;;;;;;5225785;28;20182;-48
2022/10/29 04:29:16;;;;;;;7.70;5.80;;;14.70;99.90;;;;;;5233153;28;20212;-48
2022/10/29 04:31:47;;;;;;;16.77;6.50;;;14.70;99.90;;;;;;5227783;28;20269;-49
2022/10/29 04:34:18;;;;;;;13.73;6.70;;;14.70;99.90;;;;;;5232901;28;20223;-48
2022/10/29 04:36:51;;;;;;;16.03;6.90;;;14.70;99.90;;;;;;5220156;28;20182;-48
2022/10/29 04:39:21;;;;;;;16.07;6.17;;;14.70;99.90;;;;;;5229120;28;20190;-47
2022/10/29 04:41:52;;;;;;;11.63;5.47;;;14.70;99.90;;;;;;5228046;28;20441;-49
2022/10/29 04:44:23;;;;;;;8.47;6.00;;;14.60;99.90;;;;;;5226034;28;20223;-55
2022/10/29 04:46:53;;;;;;;7.73;5.80;;;14.60;99.90;;;;;;5228685;28;20225;-48
2022/10/29 04:49:24;;;;;;;7.10;4.90;;;14.60;99.90;;;;;;5225097;28;20171;-47
2022/10/29 04:51:54;;;;;;;8.73;5.33;;;14.50;99.90;;;;;;5228127;28;20182;-48
2022/10/29 04:54:25;;;;;;;14.20;5.70;;;14.50;99.90;;;;;;5227377;28;20203;-48
2022/10/29 04:56:56;;;;;;;8.63;5.90;;;14.40;99.90;;;;;;5226483;28;20209;-48
2022/10/29 04:59:26;;;;;;;18.13;5.00;;;14.40;99.90;;;;;;5224458;28;20184;-50
2022/10/29 05:01:57;;;;;;;7.37;5.80;;;14.40;99.90;;;;;;5216348;28;20191;-48
2022/10/29 05:04:28;;;;;;;12.43;5.37;;;14.40;99.90;;;;;;5214162;28;20587;-48
2022/10/29 05:06:59;;;;;;;10.27;6.80;;;14.50;99.90;;;;;;5222485;28;20179;-48
2022/10/29 05:09:29;;;;;;;13.20;5.60;;;14.40;99.90;;;;;;5213762;28;20168;-49
2022/10/29 05:12:00;;;;;;;9.20;5.10;;;14.40;99.90;;;;;;5223027;28;20181;-50
2022/10/29 05:14:30;;;;;;;10.50;5.77;;;14.40;99.90;;;;;;5216414;28;20270;-49
2022/10/29 05:17:01;;;;;;;7.27;4.77;;;14.40;99.90;;;;;;5227335;28;20194;-50
2022/10/29 05:19:32;;;;;;;14.27;6.73;;;14.40;99.90;;;;;;5220065;28;20667;-48
2022/10/29 05:22:02;;;;;;;13.00;6.23;;;14.30;99.90;;;;;;5224885;28;20226;-49
2022/10/29 05:24:33;;;;;;;21.83;6.30;;;14.40;99.90;;;;;;5226571;28;20243;-48
2022/10/29 05:27:07;;;;;;;9.20;5.80;;;14.40;99.90;;;;;;5225287;28;20182;-48
2022/10/29 05:29:38;;;;;;;10.33;6.20;;;14.40;99.90;;;;;;5226768;28;20733;-50
2022/10/29 05:32:08;;;;;;;12.67;6.60;;;14.40;99.90;;;;;;5222155;28;20532;-48
2022/10/29 05:34:39;;;;;;;13.00;6.40;;;14.40;99.90;;;;;;5216580;28;20535;-48
2022/10/29 05:37:10;;;;;;;9.50;5.50;;;14.40;99.90;;;;;;5221360;28;20525;-48
2022/10/29 05:39:40;;;;;;;10.57;5.83;;;14.40;99.90;;;;;;5217315;28;20211;-49
2022/10/29 05:42:11;;;;;;;15.63;6.40;;;14.40;99.90;;;;;;5218177;28;20182;-49
2022/10/29 05:44:41;;;;;;;11.63;5.90;;;14.40;99.90;;;;;;5233672;28;20191;-48
2022/10/29 05:47:12;;;;;;;7.63;5.27;;;14.30;99.90;;;;;;5213593;28;20290;-50
2022/10/29 05:49:43;;;;;;;20.83;6.93;;;14.30;99.90;;;;;;5220935;28;20589;-53
2022/10/29 05:52:13;;;;;;;9.00;6.70;;;14.20;99.90;;;;;;5208298;28;20179;-54
2022/10/29 05:54:44;;;;;;;9.87;6.47;;;14.20;99.90;;;;;;5222822;28;20195;-49
2022/10/29 05:57:15;;;;;;;9.97;6.10;;;14.20;99.90;;;;;;5217429;28;20179;-50
2022/10/29 05:59:46;;;;;;;11.63;6.50;;;14.10;99.90;;;;;;5221008;28;20171;-47
2022/10/29 06:02:16;;;;;;;17.53;6.57;;;14.10;99.90;;;;;;5222971;28;20189;-47
2022/10/29 06:04:47;;;;;;;17.07;6.40;;;14.10;99.90;;;;;;5223722;28;20621;-48
2022/10/29 06:07:17;;;;;;;15.80;7.17;;;14.00;99.90;;;;;;5227940;28;20262;-48
2022/10/29 06:09:48;;;;;;;14.50;7.37;;;14.00;99.90;;;;;;5220442;28;20631;-48
2022/10/29 06:12:19;;;;;;;21.00;7.17;;;14.00;99.90;;;;;;5226105;28;20225;-49
2022/10/29 06:14:49;;;;;;;14.47;7.37;;;14.10;99.90;;;;;;5199318;28;20613;-49
2022/10/29 06:17:20;;;;;;;11.83;6.67;;;14.10;99.90;;;;;;5218300;28;20291;-48
2022/10/29 06:19:50;;;;;;;16.93;8.50;;;14.10;99.90;;;;;;5208108;28;20698;-47
2022/10/29 06:22:21;;;;;;;13.53;6.40;;;14.20;99.90;;;;;;5227066;28;20186;-48
2022/10/29 06:24:52;;;;;;;22.43;7.33;;;14.30;99.90;;;;;;5223238;28;20385;-48
2022/10/29 06:27:22;;;;;;;23.70;7.90;;;14.40;99.90;;;;;;5226434;28;20663;-50
2022/10/29 06:29:53;;;;;;;18.30;6.50;;;14.50;99.90;;;;;;5218433;28;20191;-49
2022/10/29 06:32:23;;;;;;;19.17;7.37;;;14.60;99.90;;;;;;5215203;28;20182;-52
2022/10/29 06:34:54;;;;;;;15.33;6.93;;;15.00;99.90;;;;;;5218764;28;20291;-50
2022/10/29 06:37:25;;;;;;;14.30;6.73;;;15.50;99.90;;;;;;5220413;28;20187;-51
2022/10/29 06:39:55;;;;;;;18.90;6.83;;;15.70;99.90;;;;;;5224385;28;20621;-50
2022/10/29 06:42:26;;;;;;;10.27;6.03;;;15.70;99.90;;;;;;5215627;28;20191;-51
2022/10/29 06:44:57;;;;;;;9.13;5.60;;;15.80;99.90;;;;;;5215326;28;20738;-53
2022/10/29 06:47:27;;;;;;;12.80;6.23;;;15.90;99.90;;;;;;5217524;28;20649;-50
2022/10/29 06:49:58;;;;;;;20.17;8.00;;;15.80;99.90;;;;;;5222194;28;20179;-51
2022/10/29 06:52:29;;;;;;;18.20;7.50;;;15.90;99.90;;;;;;5225411;28;21798;-50
2022/10/29 06:55:01;;;;;;;10.30;6.40;;;16.10;99.90;;;;;;5218441;28;20212;-49
2022/10/29 06:57:32;;;;;;;14.37;6.50;;;16.50;99.90;;;;;;5227046;28;20256;-52
2022/10/29 07:00:03;;;;;;;9.90;6.20;;;17.00;99.90;;;;;;5215087;28;20433;-49
2022/10/29 07:02:33;;;;;;;10.50;5.93;;;17.90;99.90;;;;;;5219397;28;20644;-53
2022/10/29 07:05:04;;;;;;;19.70;5.93;;;18.60;99.90;;;;;;5218416;28;20469;-53
2022/10/29 07:07:35;;;;;;;14.13;6.47;;;18.70;99.90;;;;;;5215136;28;20640;-52
2022/10/29 07:10:06;;;;;;;7.00;4.93;;;18.50;99.90;;;;;;5217312;28;20188;-52
2022/10/29 07:12:41;;;;;;;12.77;6.23;;;18.20;99.90;;;;;;5219151;28;20615;-53
2022/10/29 07:15:12;;;;;;;7.80;5.90;;;17.90;99.90;;;;;;5218649;28;20461;-52
2022/10/29 07:17:53;;;;;;;16.37;6.40;;;17.60;99.90;;;;;;5212272;28;20511;-53
2022/10/29 07:20:26;;;;;;;12.83;6.80;;;17.50;99.90;;;;;;5209036;28;20597;-54
2022/10/29 07:22:57;;;;;;;11.43;5.97;;;17.30;99.90;;;;;;5220394;28;20464;-50
2022/10/29 07:25:29;;;;;;;16.90;6.00;;;17.20;99.90;;;;;;5233328;28;20509;-54
2022/10/29 07:28:07;;;;;;;11.97;5.77;;;17.20;99.90;;;;;;5223062;28;20241;-52
2022/10/29 07:30:38;;;;;;;10.10;5.80;;;17.00;99.90;;;;;;5220924;28;20445;-53
2022/10/29 07:33:09;;;;;;;9.80;5.87;;;17.10;99.90;;;;;;5216575;28;20430;-53
2022/10/29 07:35:40;;;;;;;7.63;5.90;;;17.10;99.90;;;;;;5210972;28;20433;-53
2022/10/29 07:38:12;;;;;;;4.77;4.20;;;17.10;99.90;;;;;;5212704;28;20461;-52
2022/10/29 07:40:47;;;;;;;6.67;4.97;;;17.10;99.90;;;;;;5216762;28;20462;-52
2022/10/29 07:43:20;;;;;;;15.70;5.23;;;17.00;99.90;;;;;;5216410;28;20474;-52
2022/10/29 07:45:51;;;;;;;7.47;5.53;;;17.20;99.90;;;;;;5216214;28;20957;-53
2022/10/29 07:48:21;;;;;;;14.40;6.57;;;17.20;99.90;;;;;;5216497;28;20436;-52
2022/10/29 07:50:52;;;;;;;9.23;5.03;;;17.40;99.90;;;;;;5219203;28;20525;-52
2022/10/29 07:53:23;;;;;;;6.63;4.80;;;17.40;99.90;;;;;;5213379;28;20215;-52
2022/10/29 07:55:54;;;;;;;13.80;5.97;;;17.60;99.90;;;;;;5220572;28;20214;-50
2022/10/29 07:58:25;;;;;;;15.97;6.43;;;17.70;99.90;;;;;;5214563;28;20198;-53
2022/10/29 08:00:58;;;;;;;18.70;6.33;;;17.70;99.90;;;;;;5220298;28;20436;-47
2022/10/29 08:03:29;;;;;;;12.13;6.60;;;17.80;99.90;;;;;;5223926;28;20656;-53
2022/10/29 08:06:00;;;;;;;7.90;5.43;;;17.80;99.90;;;;;;5222565;28;20521;-50
2022/10/29 08:08:33;;;;;;;10.40;6.90;;;17.80;99.90;;;;;;5213626;28;20191;-48
2022/10/29 08:11:04;;;;;;;12.40;7.80;;;17.80;99.90;;;;;;5215490;28;20183;-49
2022/10/29 08:13:35;;;;;;;29.77;8.10;;;17.80;99.90;;;;;;5211897;28;20445;-47
2022/10/29 08:16:06;;;;;;;14.80;8.00;;;18.00;99.90;;;;;;5222317;28;20564;-48
2022/10/29 08:18:36;;;;;;;19.90;7.93;;;18.00;99.90;;;;;;5216506;28;20351;-49
2022/10/29 08:21:07;;;;;;;15.97;8.07;;;18.10;99.90;;;;;;5215803;28;20434;-49
2022/10/29 08:23:38;;;;;;;11.70;6.97;;;18.10;99.90;;;;;;5222572;28;20707;-48
2022/10/29 08:26:09;;;;;;;15.90;7.67;;;18.10;99.90;;;;;;5206574;28;20642;-50
2022/10/29 08:28:41;;;;;;;13.07;7.17;;;18.10;99.90;;;;;;5218088;28;20437;-50
2022/10/29 08:31:12;;;;;;;13.70;6.33;;;18.10;99.90;;;;;;5212851;28;20176;-49
2022/10/29 08:33:43;;;;;;;22.83;7.67;;;18.10;99.90;;;;;;5215960;28;20452;-47
2022/10/29 08:36:14;;;;;;;11.23;6.07;;;18.10;99.90;;;;;;5212320;28;20179;-50
2022/10/29 08:38:48;;;;;;;16.60;6.90;;;18.20;99.90;;;;;;5227040;28;20217;-48
2022/10/29 08:41:33;;;;;;;19.97;7.30;;;18.40;99.90;;;;;;5218927;28;20442;-50
2022/10/29 08:44:41;;;;;;;12.50;6.70;;;18.40;99.90;;;;;;5214086;28;20470;-48
2022/10/29 08:47:21;;;;;;;15.23;5.87;;;18.40;99.90;;;;;;5213895;28;20442;-53
2022/10/29 08:50:22;;;;;;;10.27;6.73;;;18.30;99.90;;;;;;5219289;28;20448;-49
2022/10/29 08:52:54;;;;;;;7.77;5.47;;;18.40;99.90;;;;;;5215392;28;20449;-48
2022/10/29 08:55:34;;;;;;;15.50;6.03;;;18.50;99.90;;;;;;5216551;28;20458;-49
2022/10/29 08:58:44;;;;;;;10.73;6.00;;;18.50;99.90;;;;;;5239842;28;20441;-49
2022/10/29 09:01:15;;;;;;;11.83;6.63;;;18.60;99.90;;;;;;5211881;28;20806;-52
2022/10/29 09:03:46;;;;;;;19.43;6.70;;;18.70;99.90;;;;;;5224066;28;20473;-48
2022/10/29 09:06:49;;;;;;;26.50;7.77;;;18.70;99.90;;;;;;5212707;28;20441;-51
2022/10/29 09:09:36;;;;;;;11.67;6.87;;;18.70;99.90;;;;;;5218795;28;20561;-48
2022/10/29 09:12:50;;;;;;;20.63;7.70;;;18.60;99.90;;;;;;5222819;28;20556;-48
2022/10/29 09:15:32;;;;;;;12.47;7.00;;;18.70;99.90;;;;;;5215525;28;20446;-49
2022/10/29 09:18:25;;;;;;;15.27;6.57;;;18.60;99.90;;;;;;5215169;28;20432;-49
2022/10/29 09:20:59;;;;;;;16.43;7.73;;;18.70;99.90;;;;;;5216224;28;20854;-48
2022/10/29 09:23:59;;;;;;;11.10;7.40;;;18.60;99.90;;;;;;5220755;28;20523;-49
2022/10/29 09:26:45;;;;;;;13.63;7.60;;;18.60;99.90;;;;;;5214065;28;20440;-47
2022/10/29 09:29:44;;;;;;;15.97;6.23;;;18.60;99.90;;;;;;5211163;28;20433;-50
2022/10/29 09:32:28;;;;;;;19.70;8.13;;;18.70;99.90;;;;;;5209558;28;20873;-49
2022/10/29 09:35:14;;;;;;;15.83;7.40;;;18.70;99.90;;;;;;5210095;28;20467;-54
2022/10/29 09:38:01;;;;;;;14.13;5.70;;;18.80;99.90;;;;;;5221497;28;20439;-49
2022/10/29 09:40:36;;;;;;;19.97;6.77;;;18.80;99.90;;;;;;5223164;28;20991;-51
2022/10/29 09:43:20;;;;;;;10.80;6.23;;;18.80;99.90;;;;;;5211875;28;20462;-52
2022/10/29 09:46:06;;;;;;;12.13;6.07;;;19.00;99.90;;;;;;5216336;28;20433;-47
2022/10/29 09:48:45;;;;;;;10.33;6.10;;;19.10;99.90;;;;;;5220958;28;20933;-48
2022/10/29 09:51:35;;;;;;;12.77;5.70;;;19.20;99.90;;;;;;5218732;28;20440;-55
2022/10/29 09:54:06;;;;;;;8.77;5.90;;;19.30;99.90;;;;;;5213794;28;20544;-49
2022/10/29 09:56:46;;;;;;;14.73;6.40;;;19.40;99.90;;;;;;5224631;28;20835;-48
2022/10/29 09:59:26;;;;;;;15.20;6.57;;;19.50;99.90;;;;;;5225376;28;20192;-50
2022/10/29 10:01:58;;;;;;;9.03;5.27;;;19.40;99.90;;;;;;5222088;28;20494;-49
2022/10/29 10:04:50;;;;;;;12.40;5.33;;;19.50;99.90;;;;;;5218725;28;20552;-51
2022/10/29 10:07:20;;;;;;;16.53;5.47;;;19.60;99.90;;;;;;5213179;28;20519;-51
2022/10/29 10:10:03;;;;;;;9.53;5.60;;;19.70;99.90;;;;;;5217974;28;20469;-52
2022/10/29 10:12:36;;;;;;;12.50;5.67;;;19.90;99.90;;;;;;5210088;28;20206;-51
2022/10/29 10:15:27;;;;;;;8.00;4.90;;;19.90;99.90;;;;;;5207987;28;20845;-52
2022/10/29 10:18:15;;;;;;;10.27;6.07;;;20.00;99.90;;;;;;5213101;28;20483;-50
2022/10/29 10:20:58;;;;;;;10.77;6.10;;;20.00;99.90;;;;;;5212422;28;20464;-51
2022/10/29 10:23:45;;;;;;;12.97;7.50;;;20.10;99.90;;;;;;5213308;28;21084;-50
2022/10/29 10:26:25;;;;;;;14.00;7.20;;;20.10;99.90;;;;;;5222654;28;20438;-51
2022/10/29 10:29:19;;;;;;;11.97;6.70;;;20.00;99.90;;;;;;5218080;28;20843;-49
2022/10/29 10:31:56;;;;;;;13.60;7.50;;;20.10;99.90;;;;;;5212826;28;20445;-51
2022/10/29 10:34:33;;;;;;;23.20;8.27;;;20.20;99.90;;;;;;5217935;28;20471;-51
2022/10/29 10:37:08;;;;;;;16.40;7.93;;;20.40;99.90;;;;;;5217345;28;20444;-50
2022/10/29 10:39:42;;;;;;;15.57;7.70;;;20.50;99.90;;;;;;5225362;28;20483;-51
2022/10/29 10:42:33;;;;;;;25.20;8.03;;;20.70;99.90;;;;;;5211205;28;20449;-51
2022/10/29 10:45:37;;;;;;;12.70;5.87;;;20.60;99.90;;;;;;5216441;28;20458;-52
2022/10/29 10:48:10;;;;;;;9.50;5.47;;;20.50;99.90;;;;;;5189913;28;20500;-51
2022/10/29 10:50:40;;;;;;;9.70;5.80;;;20.20;99.90;;;;;;5215524;28;20533;-53
2022/10/29 10:53:19;;;;;;;12.53;5.50;;;20.20;99.90;;;;;;5220694;28;21000;-55
2022/10/29 10:55:56;;;;;;;6.67;4.87;;;20.10;99.90;;;;;;5218157;28;20578;-52
2022/10/29 10:58:44;;;;;;;12.50;6.70;;;20.00;99.90;;;;;;5219607;28;20957;-51
2022/10/29 11:01:42;;;;;;;10.13;5.87;;;19.80;99.90;;;;;;5217871;28;20429;-52
2022/10/29 11:04:36;;;;;;;12.40;6.17;;;19.70;99.90;;;;;;5208039;28;20523;-51
2022/10/29 11:07:11;;;;;;;10.53;6.40;;;19.60;99.90;;;;;;5219066;28;20435;-54
2022/10/29 11:09:49;;;;;;;24.47;6.93;;;19.70;99.90;;;;;;5212959;28;20495;-51
2022/10/29 11:12:43;;;;;;;14.00;6.50;;;19.70;99.90;;;;;;5222808;28;20528;-52
2022/10/29 11:15:51;;;;;;;6.47;5.20;;;19.80;99.90;;;;;;5211634;28;20457;-51
2022/10/29 11:18:40;;;;;;;7.17;4.40;;;19.80;99.90;;;;;;5199588;28;20441;-51
2022/10/29 11:21:37;;;;;;;17.53;5.70;;;19.80;99.90;;;;;;5220083;28;20480;-52
2022/10/29 11:24:29;;;;;;;9.63;5.97;;;19.80;99.90;;;;;;5210849;28;20477;-51
2022/10/29 11:27:07;;;;;;;16.30;5.93;;;19.80;99.90;;;;;;5222812;28;21023;-50
2022/10/29 11:30:01;;;;;;;11.37;6.03;;;19.90;99.90;;;;;;5224216;28;20486;-51
2022/10/29 11:32:49;;;;;;;12.00;7.20;;;19.80;99.90;;;;;;5219640;28;20441;-50
2022/10/29 11:35:42;;;;;;;5.70;4.40;;;19.90;99.90;;;;;;5221157;28;20479;-49
2022/10/29 11:38:13;;;;;;;10.27;5.90;;;19.90;99.90;;;;;;5219349;28;20926;-52
2022/10/29 11:40:52;;;;;;;20.50;6.50;;;19.80;99.90;;;;;;5216497;28;20438;-50
2022/10/29 11:43:23;;;;;;;14.93;6.63;;;19.70;99.90;;;;;;5220182;28;20217;-51
2022/10/29 11:46:01;;;;;;;13.17;7.20;;;19.60;99.90;;;;;;5220973;28;20464;-50
2022/10/29 11:48:44;;;;;;;16.50;7.57;;;19.70;99.90;;;;;;5225762;28;20429;-51
2022/10/29 11:51:36;;;;;;;8.57;6.10;;;19.80;99.90;;;;;;5214318;28;20445;-52
2022/10/29 11:54:34;;;;;;;6.77;4.50;;;19.80;99.90;;;;;;5209746;28;20494;-50
2022/10/29 11:57:15;;;;;;;9.67;5.23;;;19.80;99.90;;;;;;5215706;28;20438;-52
2022/10/29 12:00:14;;;;;;;11.83;6.07;;;19.80;99.90;;;;;;5220703;28;20970;-48
2022/10/29 12:03:09;;;;;;;14.27;5.70;;;19.80;99.90;;;;;;5212407;28;20981;-52
2022/10/29 12:05:54;;;;;;;13.80;6.47;;;19.80;99.90;;;;;;5220431;28;20445;-54
2022/10/29 12:08:40;;;;;;;4.60;4.10;;;19.80;99.90;;;;;;5218512;28;20438;-52
2022/10/29 12:11:45;;;;;;;17.80;5.00;;;19.70;99.90;;;;;;5214119;28;20779;-50
2022/10/29 12:14:25;;;;;;;4.67;3.90;;;19.80;99.90;;;;;;5214965;28;20465;-50
2022/10/29 12:16:58;;;;;;;11.63;6.07;;;19.90;99.90;;;;;;5225576;28;20433;-50
2022/10/29 12:19:49;;;;;;;8.30;5.27;;;20.10;99.90;;;;;;5224809;28;20437;-51
2022/10/29 12:22:39;;;;;;;12.53;4.80;;;20.30;99.90;;;;;;5207481;28;20434;-51
2022/10/29 12:25:39;;;;;;;8.73;5.30;;;20.50;99.90;;;;;;5212209;28;20465;-51
2022/10/29 12:28:44;;;;;;;8.10;5.30;;;20.50;99.90;;;;;;5202109;28;20428;-52
2022/10/29 12:31:32;;;;;;;14.90;5.10;;;20.70;99.90;;;;;;5212413;28;20433;-50
2022/10/29 12:34:32;;;;;;;16.60;8.10;;;20.80;99.90;;;;;;5214278;28;21054;-52
2022/10/29 12:37:09;;;;;;;12.40;6.23;;;20.90;99.90;;;;;;5204963;28;20537;-51
2022/10/29 12:39:51;;;;;;;16.63;6.03;;;20.80;99.90;;;;;;5226074;28;20972;-50
2022/10/29 12:42:25;;;;;;;14.67;5.70;;;20.80;99.90;;;;;;5215592;28;21010;-52
2022/10/29 12:45:20;;;;;;;12.50;4.90;;;20.70;99.90;;;;;;5209444;28;20454;-51
2022/10/29 12:48:18;;;;;;;7.10;4.73;;;20.60;99.90;;;;;;5210472;28;20839;-50
2022/10/29 12:50:54;;;;;;;11.77;5.80;;;20.60;99.90;;;;;;5214948;28;20961;-51
2022/10/29 12:53:41;;;;;;;14.93;6.00;;;20.50;99.90;;;;;;5214379;28;20448;-51
2022/10/29 12:56:13;;;;;;;11.30;5.10;;;20.50;99.90;;;;;;5219839;28;20469;-51
2022/10/29 12:58:55;;;;;;;10.87;5.57;;;20.50;99.90;;;;;;5211632;28;20441;-54
2022/10/29 13:01:26;;;;;;;7.17;4.70;;;20.50;99.90;;;;;;5205115;28;20453;-52
2022/10/29 13:03:59;;;;;;;5.00;4.60;;;20.60;99.90;;;;;;5215219;28;20472;-50
2022/10/29 13:06:41;;;;;;;8.60;4.83;;;20.60;99.90;;;;;;5218977;28;20243;-53
2022/10/29 13:09:22;;;;;;;15.23;6.00;;;20.60;99.90;;;;;;5213394;28;20526;-52
2022/10/29 13:11:56;;;;;;;7.53;4.77;;;20.60;99.90;;;;;;5211736;28;20441;-51
2022/10/29 13:14:42;;;;;;;10.43;4.90;;;20.50;99.90;;;;;;5208792;28;21122;-52
2022/10/29 13:17:36;;;;;;;5.83;4.10;;;20.50;99.90;;;;;;5215822;28;20570;-49
2022/10/29 13:20:21;;;;;;;9.00;4.10;;;20.50;99.90;;;;;;5212073;28;20489;-51
2022/10/29 13:22:54;;;;;;;13.30;6.00;;;20.50;99.90;;;;;;5213089;28;20524;-52
2022/10/29 13:25:41;;;;;;;10.90;5.27;;;20.50;99.90;;;;;;5216527;28;20480;-53
2022/10/29 13:28:15;;;;;;;11.77;5.97;;;20.50;99.90;;;;;;5211499;28;20444;-49
2022/10/29 13:30:50;;;;;;;12.23;5.50;;;20.40;99.90;;;;;;5220337;28;20826;-50